Weather History for Danville, IL

Change the Weather History Date:

Wednesday, October 17, 2012

  Actual Average (KLAF) Record (KLAF)
Temperature  
Mean Temperature 62 °F 54 °F  
Max Temperature 67 °F 65 °F 82 °F (1965)
Min Temperature 54 °F 43 °F 29 °F (1977)
Degree Days  
Heating Degree Days 3 11  
Month to date heating degree days 156  
Since 1 July heating degree days 241  
Cooling Degree Days 0 0  
Month to date cooling degree days 13  
Year to date cooling degree days 978  
Growing Degree Days 12 (Base 50)    
Moisture  
Dew Point 51 °F    
Average Humidity 68    
Maximum Humidity 94    
Minimum Humidity 55    
Precipitation  
Precipitation 0.74 in 0.08 in 1.34 in (1988)
Month to date precipitation 1.59  
Year to date precipitation 29.80  
Sea Level Pressure  
Sea Level Pressure 29.53 in    
Wind  
Wind Speed 15 mph (South)    
Max Wind Speed 24 mph    
Max Gust Speed 37 mph    
Visibility 10 miles    
Events Rain    
T = Trace of Precipitation, MM = Missing Value Source: NWS Daily Summary

Daily Weather History Graph

Daily Weather History Graph

Search for Another Location

Airport:

Trip Planner

Search our weather history database for the weather conditions in past years. The results will help you decide how hot, cold, wet, or windy it might be!

Date:

Astronomy

Oct. 17, 2012 Rise Set
Actual Time 7:03 AM CDT 6:06 PM CDT
Civil Twilight 6:36 AM CDT 6:34 PM CDT
Nautical Twilight 6:04 AM CDT 7:05 PM CDT
Astronomical Twilight 5:33 AM CDT 7:37 PM CDT
Moon 9:37 AM CDT (10/17) 7:42 PM CDT (10/17)
Length of Visible Light 11h 58m
Length of Day
11h 03m
Waxing Crescent, 7% of the Moon is Illuminated
Oct 17
Waxing Crescent
Oct 21
First Quarter
Oct 29
Full
Nov 6
Last Quarter
Nov 13
New

Hourly Weather History & Observations

Time (CDT) Temp. Dew Point Humidity Pressure Visibility Wind Dir Wind Speed Gust Speed Precip Events Conditions
12:15 AM 62.8 °F 50.5 °F 64% 29.64 in 10.0 mi South 13.8 mph - N/A   Clear
12:35 AM 61.9 °F 50.4 °F 66% 29.65 in 10.0 mi SSW 15.0 mph 18.4 mph N/A   Clear
12:55 AM 62.1 °F 50.4 °F 65% 29.65 in 10.0 mi SSW 12.7 mph - N/A   Clear
1:15 AM 61.9 °F 50.2 °F 65% 29.65 in 10.0 mi SSW 15.0 mph 19.6 mph N/A   Clear
1:35 AM 61.7 °F 50.0 °F 65% 29.65 in 10.0 mi SSW 13.8 mph 20.7 mph N/A   Clear
1:55 AM 60.8 °F 49.6 °F 67% 29.65 in 10.0 mi SSW 16.1 mph - N/A   Clear
2:15 AM 60.3 °F 49.3 °F 67% 29.65 in 10.0 mi South 12.7 mph - N/A   Clear
2:35 AM 59.0 °F 50.0 °F 72% 29.65 in 10.0 mi South 12.7 mph - N/A   Clear
2:55 AM 59.4 °F 48.6 °F 67% 29.64 in 10.0 mi South 13.8 mph 18.4 mph N/A   Clear
3:15 AM 59.2 °F 48.2 °F 67% 29.64 in 10.0 mi South 12.7 mph 18.4 mph N/A   Clear
3:35 AM 59.4 °F 47.5 °F 65% 29.64 in 10.0 mi SSW 13.8 mph - N/A   Clear
3:55 AM 58.8 °F 47.3 °F 66% 29.64 in 10.0 mi SSW 15.0 mph 21.9 mph N/A   Clear
4:15 AM 58.8 °F 46.8 °F 64% 29.63 in 10.0 mi SSW 15.0 mph - N/A   Clear
4:35 AM 58.5 °F 46.4 °F 64% 29.62 in 10.0 mi SSW 17.3 mph - N/A   Clear
4:55 AM 59.0 °F 46.4 °F 63% 29.62 in 10.0 mi South 16.1 mph 20.7 mph N/A   Clear
5:15 AM 58.6 °F 46.6 °F 64% 29.62 in 10.0 mi South 12.7 mph 18.4 mph N/A   Clear
5:35 AM 59.0 °F 46.4 °F 63% 29.62 in 10.0 mi South 12.7 mph 19.6 mph N/A   Clear
5:55 AM 57.9 °F 47.5 °F 68% 29.63 in 10.0 mi South 12.7 mph 18.4 mph N/A   Clear
6:15 AM 57.9 °F 48.0 °F 70% 29.63 in 10.0 mi South 15.0 mph 24.2 mph N/A   Clear
6:35 AM 57.9 °F 48.4 °F 71% 29.63 in 10.0 mi South 17.3 mph 21.9 mph N/A   Clear
6:55 AM 57.6 °F 48.7 °F 72% 29.62 in 10.0 mi South 15.0 mph - N/A   Clear
7:15 AM 56.8 °F 48.6 °F 74% 29.62 in 10.0 mi South 11.5 mph 19.6 mph N/A   Clear
7:35 AM 57.2 °F 48.2 °F 72% 29.62 in 10.0 mi South 12.7 mph 17.3 mph N/A   Clear
7:55 AM 57.2 °F 48.6 °F 73% 29.61 in 10.0 mi South 13.8 mph - N/A   Clear
8:15 AM 58.3 °F 48.7 °F 71% 29.61 in 10.0 mi South 16.1 mph 20.7 mph N/A   Clear
8:35 AM 59.0 °F 48.7 °F 69% 29.61 in 10.0 mi South 17.3 mph 21.9 mph N/A   Clear
8:55 AM 59.9 °F 48.7 °F 67% 29.61 in 10.0 mi South 19.6 mph 27.6 mph N/A   Clear
9:15 AM 60.8 °F 49.3 °F 66% 29.60 in 10.0 mi South 16.1 mph 26.5 mph N/A   Clear
9:35 AM 61.7 °F 49.5 °F 64% 29.60 in 10.0 mi South 17.3 mph 24.2 mph N/A   Clear
9:55 AM 62.4 °F 50.0 °F 64% 29.59 in 10.0 mi South 23.0 mph 31.1 mph N/A   Clear
10:15 AM 64.2 °F 50.2 °F 60% 29.58 in 10.0 mi South 21.9 mph 27.6 mph N/A   Clear
10:35 AM 65.7 °F 50.4 °F 58% 29.58 in 10.0 mi South 19.6 mph 33.4 mph N/A   Clear
10:55 AM 64.8 °F 50.2 °F 59% 29.58 in 10.0 mi South 17.3 mph 33.4 mph N/A   Mostly Cloudy
11:15 AM 65.3 °F 50.4 °F 58% 29.57 in 10.0 mi SSW 23.0 mph 31.1 mph N/A   Overcast
11:35 AM 66.0 °F 50.5 °F 57% 29.57 in 10.0 mi South 23.0 mph 29.9 mph N/A   Mostly Cloudy
11:55 AM 64.9 °F 50.7 °F 60% 29.56 in 10.0 mi South 21.9 mph 31.1 mph N/A   Mostly Cloudy
12:15 PM 65.3 °F 51.8 °F 62% 29.56 in 10.0 mi South 21.9 mph 29.9 mph N/A   Overcast
12:35 PM 66.2 °F 52.2 °F 61% 29.55 in 10.0 mi South 24.2 mph 29.9 mph N/A   Overcast
12:55 PM 67.6 °F 52.7 °F 59% 29.53 in 10.0 mi South 24.2 mph 36.8 mph N/A   Scattered Clouds
1:15 PM 66.7 °F 52.5 °F 60% 29.52 in 10.0 mi South 20.7 mph 26.5 mph N/A   Scattered Clouds
1:35 PM 66.2 °F 52.0 °F 60% 29.51 in 10.0 mi South 21.9 mph 29.9 mph N/A   Mostly Cloudy
1:55 PM 66.2 °F 52.2 °F 61% 29.50 in 10.0 mi South 21.9 mph 29.9 mph N/A   Overcast
2:15 PM 65.8 °F 51.8 °F 60% 29.50 in 10.0 mi SSW 20.7 mph 26.5 mph N/A   Overcast
2:35 PM 64.9 °F 51.6 °F 62% 29.50 in 10.0 mi South 19.6 mph 25.3 mph N/A   Overcast
2:55 PM 64.6 °F 51.8 °F 63% 29.49 in 10.0 mi South 16.1 mph 24.2 mph N/A   Overcast
3:15 PM 64.9 °F 51.8 °F 62% 29.48 in 10.0 mi South 15.0 mph 21.9 mph N/A   Overcast
3:35 PM 65.3 °F 51.8 °F 62% 29.48 in 10.0 mi South 17.3 mph 28.8 mph N/A   Overcast
3:55 PM 66.4 °F 51.6 °F 59% 29.46 in 10.0 mi South 18.4 mph 25.3 mph N/A   Overcast
4:15 PM 66.4 °F 52.0 °F 60% 29.45 in 10.0 mi South 13.8 mph - N/A   Overcast
4:35 PM 66.7 °F 51.8 °F 59% 29.45 in 10.0 mi South 13.8 mph 25.3 mph N/A   Overcast
4:55 PM 66.9 °F 51.8 °F 58% 29.44 in 10.0 mi South 13.8 mph - N/A   Overcast
5:15 PM 67.5 °F 51.8 °F 57% 29.43 in 10.0 mi South 16.1 mph 23.0 mph N/A   Overcast
5:35 PM 67.5 °F 51.8 °F 57% 29.42 in 10.0 mi South 13.8 mph - N/A   Overcast
5:55 PM 67.3 °F 52.0 °F 58% 29.42 in 10.0 mi South 13.8 mph 23.0 mph N/A   Overcast
6:15 PM 66.7 °F 52.3 °F 60% 29.40 in 10.0 mi SSE 15.0 mph 20.7 mph N/A   Overcast
6:35 PM 68.0 °F 51.8 °F 56% 29.39 in 10.0 mi SSE 15.0 mph 23.0 mph N/A   Overcast
6:55 PM 67.1 °F 50.4 °F 55% 29.38 in 10.0 mi SSE 17.3 mph 26.5 mph N/A   Overcast
7:15 PM 66.6 °F 49.8 °F 55% 29.38 in 10.0 mi SSE 15.0 mph 24.2 mph N/A Rain Light Rain
7:35 PM 65.5 °F 50.0 °F 57% 29.37 in 10.0 mi South 15.0 mph 20.7 mph N/A Rain Rain
7:55 PM 61.7 °F 52.7 °F 72% 29.39 in 7.0 mi SSW 6.9 mph - 0.07 in Rain Heavy Rain
8:15 PM 59.5 °F 54.0 °F 82% 29.39 in 7.0 mi South 3.5 mph - 0.05 in Rain Heavy Rain
8:35 PM 59.0 °F 54.1 °F 84% 29.39 in 7.0 mi South 8.1 mph - 0.19 in Rain Heavy Rain
8:55 PM 58.5 °F 54.0 °F 85% 29.44 in 7.0 mi SW 18.4 mph 21.9 mph 0.29 in Rain Heavy Rain
9:15 PM 57.7 °F 54.5 °F 89% 29.43 in 5.0 mi SSW 16.1 mph 23.0 mph 0.13 in Rain Heavy Rain
9:35 PM 57.2 °F 54.5 °F 91% 29.42 in 7.0 mi SSW 15.0 mph 19.6 mph 0.24 in Rain Heavy Rain
9:55 PM 57.0 °F 54.5 °F 91% 29.40 in 10.0 mi South 10.4 mph - 0.29 in Rain Light Rain
10:15 PM 56.8 °F 54.7 °F 92% 29.37 in 10.0 mi South 8.1 mph - 0.01 in Rain Rain
10:35 PM 57.2 °F 55.4 °F 94% 29.38 in 10.0 mi South 9.2 mph - N/A Rain Light Rain
10:55 PM 57.2 °F 55.0 °F 92% 29.39 in 10.0 mi South 12.7 mph - 0.03 in Rain Light Rain
11:15 PM 57.2 °F 55.4 °F 94% 29.40 in 10.0 mi SW 10.4 mph 16.1 mph N/A Rain Light Rain
11:35 PM 57.2 °F 55.4 °F 94% 29.40 in 7.0 mi WSW 10.4 mph - N/A Rain Rain
11:55 PM 54.0 °F 50.7 °F 89% 29.41 in 7.0 mi WNW 12.7 mph 26.5 mph 0.06 in Rain Light Rain